sensor_id;sensor_type;location;lat;lon;timestamp;temperature;humidity
61807;DHT22;47726;52.766;6.606;2022-12-08T00:01:50;4.10;99.90
61807;DHT22;47726;52.766;6.606;2022-12-08T00:04:15;4.00;99.90
61807;DHT22;47726;52.766;6.606;2022-12-08T00:06:42;4.10;99.90
61807;DHT22;47726;52.766;6.606;2022-12-08T00:12:32;4.00;99.90
61807;DHT22;47726;52.766;6.606;2022-12-08T00:14:52;4.10;99.90
61807;DHT22;47726;52.766;6.606;2022-12-08T00:17:19;4.00;99.90
61807;DHT22;47726;52.766;6.606;2022-12-08T00:19:44;4.00;99.90
61807;DHT22;47726;52.766;6.606;2022-12-08T00:22:13;4.00;99.90
61807;DHT22;47726;52.766;6.606;2022-12-08T00:24:40;4.00;99.90
61807;DHT22;47726;52.766;6.606;2022-12-08T00:27:08;4.00;99.90
61807;DHT22;47726;52.766;6.606;2022-12-08T00:29:33;4.00;99.90
61807;DHT22;47726;52.766;6.606;2022-12-08T00:31:59;4.00;99.90
61807;DHT22;47726;52.766;6.606;2022-12-08T00:34:25;4.00;99.90
61807;DHT22;47726;52.766;6.606;2022-12-08T00:36:50;4.00;99.90
61807;DHT22;47726;52.766;6.606;2022-12-08T00:39:16;4.00;99.90
61807;DHT22;47726;52.766;6.606;2022-12-08T00:41:42;3.90;99.90
61807;DHT22;47726;52.766;6.606;2022-12-08T00:44:26;4.00;99.90
61807;DHT22;47726;52.766;6.606;2022-12-08T00:46:52;3.90;99.90
61807;DHT22;47726;52.766;6.606;2022-12-08T00:49:18;3.90;99.90
61807;DHT22;47726;52.766;6.606;2022-12-08T00:51:44;3.90;99.90
61807;DHT22;47726;52.766;6.606;2022-12-08T00:54:10;3.90;99.90
61807;DHT22;47726;52.766;6.606;2022-12-08T00:56:36;3.80;99.90
61807;DHT22;47726;52.766;6.606;2022-12-08T00:59:03;3.80;99.90
61807;DHT22;47726;52.766;6.606;2022-12-08T01:01:30;3.80;99.90
61807;DHT22;47726;52.766;6.606;2022-12-08T01:03:55;3.80;99.90
61807;DHT22;47726;52.766;6.606;2022-12-08T01:06:21;3.80;99.90
61807;DHT22;47726;52.766;6.606;2022-12-08T01:08:47;3.80;99.90
61807;DHT22;47726;52.766;6.606;2022-12-08T01:11:15;3.80;99.90
61807;DHT22;47726;52.766;6.606;2022-12-08T01:13:42;3.80;99.90
61807;DHT22;47726;52.766;6.606;2022-12-08T01:16:09;3.80;99.90
61807;DHT22;47726;52.766;6.606;2022-12-08T01:18:35;3.70;99.90
61807;DHT22;47726;52.766;6.606;2022-12-08T01:21:05;3.80;99.90
61807;DHT22;47726;52.766;6.606;2022-12-08T01:23:32;3.70;99.90
61807;DHT22;47726;52.766;6.606;2022-12-08T01:26:06;3.70;99.90
61807;DHT22;47726;52.766;6.606;2022-12-08T01:28:32;3.80;99.90
61807;DHT22;47726;52.766;6.606;2022-12-08T01:31:00;3.70;99.90
61807;DHT22;47726;52.766;6.606;2022-12-08T01:33:26;3.70;99.90
61807;DHT22;47726;52.766;6.606;2022-12-08T01:35:52;3.70;99.90
61807;DHT22;47726;52.766;6.606;2022-12-08T01:38:18;3.70;99.90
61807;DHT22;47726;52.766;6.606;2022-12-08T01:40:44;3.70;99.90
61807;DHT22;47726;52.766;6.606;2022-12-08T01:43:18;3.70;99.90
61807;DHT22;47726;52.766;6.606;2022-12-08T01:45:44;3.70;99.90
61807;DHT22;47726;52.766;6.606;2022-12-08T01:48:25;3.70;99.90
61807;DHT22;47726;52.766;6.606;2022-12-08T01:50:53;3.70;99.90
61807;DHT22;47726;52.766;6.606;2022-12-08T01:53:25;3.70;99.90
61807;DHT22;47726;52.766;6.606;2022-12-08T01:55:57;3.70;99.90
61807;DHT22;47726;52.766;6.606;2022-12-08T01:58:41;3.70;99.90
61807;DHT22;47726;52.766;6.606;2022-12-08T02:01:08;3.70;99.90
61807;DHT22;47726;52.766;6.606;2022-12-08T02:03:40;3.70;99.90
61807;DHT22;47726;52.766;6.606;2022-12-08T02:06:07;3.70;99.90
61807;DHT22;47726;52.766;6.606;2022-12-08T02:08:34;3.70;99.90
61807;DHT22;47726;52.766;6.606;2022-12-08T02:11:00;3.70;99.90
61807;DHT22;47726;52.766;6.606;2022-12-08T02:13:26;3.80;99.90
61807;DHT22;47726;52.766;6.606;2022-12-08T02:21:37;3.80;99.90
61807;DHT22;47726;52.766;6.606;2022-12-08T02:24:29;3.80;99.90
61807;DHT22;47726;52.766;6.606;2022-12-08T02:29:53;3.80;99.90
61807;DHT22;47726;52.766;6.606;2022-12-08T02:37:53;3.80;99.90
61807;DHT22;47726;52.766;6.606;2022-12-08T02:43:05;3.80;99.90
61807;DHT22;47726;52.766;6.606;2022-12-08T02:45:37;3.80;99.90
61807;DHT22;47726;52.766;6.606;2022-12-08T02:48:04;3.80;99.90
61807;DHT22;47726;52.766;6.606;2022-12-08T02:50:31;3.80;99.90
61807;DHT22;47726;52.766;6.606;2022-12-08T02:52:56;3.80;99.90
61807;DHT22;47726;52.766;6.606;2022-12-08T02:55:36;3.90;99.90
61807;DHT22;47726;52.766;6.606;2022-12-08T03:04:05;3.90;99.90
61807;DHT22;47726;52.766;6.606;2022-12-08T03:09:38;3.90;99.90
61807;DHT22;47726;52.766;6.606;2022-12-08T03:12:33;3.90;99.90
61807;DHT22;47726;52.766;6.606;2022-12-08T03:15:09;3.90;99.90
61807;DHT22;47726;52.766;6.606;2022-12-08T03:17:37;3.90;99.90
61807;DHT22;47726;52.766;6.606;2022-12-08T03:20:09;3.90;99.90
61807;DHT22;47726;52.766;6.606;2022-12-08T03:22:37;3.90;99.90
61807;DHT22;47726;52.766;6.606;2022-12-08T03:25:05;3.90;99.90
61807;DHT22;47726;52.766;6.606;2022-12-08T03:27:31;3.90;99.90
61807;DHT22;47726;52.766;6.606;2022-12-08T03:29:58;3.90;99.90
61807;DHT22;47726;52.766;6.606;2022-12-08T03:32:41;3.90;99.90
61807;DHT22;47726;52.766;6.606;2022-12-08T03:35:15;4.00;99.90
61807;DHT22;47726;52.766;6.606;2022-12-08T03:37:42;4.00;99.90
61807;DHT22;47726;52.766;6.606;2022-12-08T03:40:12;4.00;99.90
61807;DHT22;47726;52.766;6.606;2022-12-08T03:42:38;4.00;99.90
61807;DHT22;47726;52.766;6.606;2022-12-08T03:45:04;4.00;99.90
61807;DHT22;47726;52.766;6.606;2022-12-08T03:47:30;4.00;99.90
61807;DHT22;47726;52.766;6.606;2022-12-08T03:49:56;4.00;99.90
61807;DHT22;47726;52.766;6.606;2022-12-08T03:52:21;4.00;99.90
61807;DHT22;47726;52.766;6.606;2022-12-08T03:54:47;4.00;99.90
61807;DHT22;47726;52.766;6.606;2022-12-08T03:57:12;4.00;99.90
61807;DHT22;47726;52.766;6.606;2022-12-08T03:59:39;4.00;99.90
61807;DHT22;47726;52.766;6.606;2022-12-08T04:02:04;4.00;99.90
61807;DHT22;47726;52.766;6.606;2022-12-08T04:04:30;4.00;99.90
61807;DHT22;47726;52.766;6.606;2022-12-08T04:06:55;4.00;99.90
61807;DHT22;47726;52.766;6.606;2022-12-08T04:09:21;4.00;99.90
61807;DHT22;47726;52.766;6.606;2022-12-08T04:11:47;4.00;99.90
61807;DHT22;47726;52.766;6.606;2022-12-08T04:14:13;4.10;99.90
61807;DHT22;47726;52.766;6.606;2022-12-08T04:16:38;4.10;99.90
61807;DHT22;47726;52.766;6.606;2022-12-08T04:19:04;4.00;99.90
61807;DHT22;47726;52.766;6.606;2022-12-08T04:21:30;4.10;99.90
61807;DHT22;47726;52.766;6.606;2022-12-08T04:23:55;4.10;99.90
61807;DHT22;47726;52.766;6.606;2022-12-08T04:26:21;4.10;99.90
61807;DHT22;47726;52.766;6.606;2022-12-08T04:28:47;4.10;99.90
61807;DHT22;47726;52.766;6.606;2022-12-08T04:31:12;4.10;99.90
61807;DHT22;47726;52.766;6.606;2022-12-08T04:33:38;4.10;99.90
61807;DHT22;47726;52.766;6.606;2022-12-08T04:36:05;4.10;99.90
61807;DHT22;47726;52.766;6.606;2022-12-08T04:38:31;4.10;99.90
61807;DHT22;47726;52.766;6.606;2022-12-08T04:40:57;4.10;99.90
61807;DHT22;47726;52.766;6.606;2022-12-08T04:43:23;4.10;99.90
61807;DHT22;47726;52.766;6.606;2022-12-08T04:45:49;4.10;99.90
61807;DHT22;47726;52.766;6.606;2022-12-08T04:48:14;4.10;99.90
61807;DHT22;47726;52.766;6.606;2022-12-08T04:50:42;4.10;99.90
61807;DHT22;47726;52.766;6.606;2022-12-08T04:53:09;4.10;99.90
61807;DHT22;47726;52.766;6.606;2022-12-08T04:55:38;4.10;99.90
61807;DHT22;47726;52.766;6.606;2022-12-08T04:58:05;4.10;99.90
61807;DHT22;47726;52.766;6.606;2022-12-08T05:00:31;4.10;99.90
61807;DHT22;47726;52.766;6.606;2022-12-08T05:02:56;4.10;99.90
61807;DHT22;47726;52.766;6.606;2022-12-08T05:05:22;4.10;99.90
61807;DHT22;47726;52.766;6.606;2022-12-08T05:07:47;4.10;99.90
61807;DHT22;47726;52.766;6.606;2022-12-08T05:10:13;4.10;99.90
61807;DHT22;47726;52.766;6.606;2022-12-08T05:12:39;4.10;99.90
61807;DHT22;47726;52.766;6.606;2022-12-08T05:15:05;4.10;99.90
61807;DHT22;47726;52.766;6.606;2022-12-08T05:17:31;4.10;99.90
61807;DHT22;47726;52.766;6.606;2022-12-08T05:19:57;4.10;99.90
61807;DHT22;47726;52.766;6.606;2022-12-08T05:22:22;4.10;99.90
61807;DHT22;47726;52.766;6.606;2022-12-08T05:24:48;4.10;99.90
61807;DHT22;47726;52.766;6.606;2022-12-08T05:27:14;4.10;99.90
61807;DHT22;47726;52.766;6.606;2022-12-08T05:29:40;4.10;99.90
61807;DHT22;47726;52.766;6.606;2022-12-08T05:32:06;4.10;99.90
61807;DHT22;47726;52.766;6.606;2022-12-08T05:34:31;4.10;99.90
61807;DHT22;47726;52.766;6.606;2022-12-08T05:36:57;4.10;99.90
61807;DHT22;47726;52.766;6.606;2022-12-08T05:39:22;4.10;99.90
61807;DHT22;47726;52.766;6.606;2022-12-08T05:41:48;4.10;99.90
61807;DHT22;47726;52.766;6.606;2022-12-08T05:44:14;4.10;99.90
61807;DHT22;47726;52.766;6.606;2022-12-08T05:46:39;4.10;99.90
61807;DHT22;47726;52.766;6.606;2022-12-08T05:49:05;4.10;99.90
61807;DHT22;47726;52.766;6.606;2022-12-08T05:51:31;4.10;99.90
61807;DHT22;47726;52.766;6.606;2022-12-08T05:53:56;4.10;99.90
61807;DHT22;47726;52.766;6.606;2022-12-08T05:56:22;4.10;99.90
61807;DHT22;47726;52.766;6.606;2022-12-08T05:58:48;4.10;99.90
61807;DHT22;47726;52.766;6.606;2022-12-08T06:01:26;4.10;99.90
61807;DHT22;47726;52.766;6.606;2022-12-08T06:03:53;4.10;99.90
61807;DHT22;47726;52.766;6.606;2022-12-08T06:06:19;4.10;99.90
61807;DHT22;47726;52.766;6.606;2022-12-08T06:08:45;4.10;99.90
61807;DHT22;47726;52.766;6.606;2022-12-08T06:11:17;4.10;99.90
61807;DHT22;47726;52.766;6.606;2022-12-08T06:13:43;4.10;99.90
61807;DHT22;47726;52.766;6.606;2022-12-08T06:16:09;4.00;99.90
61807;DHT22;47726;52.766;6.606;2022-12-08T06:18:35;4.00;99.90
61807;DHT22;47726;52.766;6.606;2022-12-08T06:21:05;4.00;99.90
61807;DHT22;47726;52.766;6.606;2022-12-08T06:23:31;4.00;99.90
61807;DHT22;47726;52.766;6.606;2022-12-08T06:26:06;4.00;99.90
61807;DHT22;47726;52.766;6.606;2022-12-08T06:28:32;4.10;99.90
61807;DHT22;47726;52.766;6.606;2022-12-08T06:30:58;4.00;99.90
61807;DHT22;47726;52.766;6.606;2022-12-08T06:33:25;4.00;99.90
61807;DHT22;47726;52.766;6.606;2022-12-08T06:35:51;4.00;99.90
61807;DHT22;47726;52.766;6.606;2022-12-08T06:38:17;4.00;99.90
61807;DHT22;47726;52.766;6.606;2022-12-08T06:40:43;4.00;99.90
61807;DHT22;47726;52.766;6.606;2022-12-08T06:43:09;4.00;99.90
61807;DHT22;47726;52.766;6.606;2022-12-08T06:45:34;4.00;99.90
61807;DHT22;47726;52.766;6.606;2022-12-08T06:48:01;4.00;99.90
61807;DHT22;47726;52.766;6.606;2022-12-08T06:50:27;4.00;99.90
61807;DHT22;47726;52.766;6.606;2022-12-08T06:52:53;4.10;99.90
61807;DHT22;47726;52.766;6.606;2022-12-08T06:55:19;4.10;99.90
61807;DHT22;47726;52.766;6.606;2022-12-08T06:57:45;4.00;99.90
61807;DHT22;47726;52.766;6.606;2022-12-08T07:00:11;4.10;99.90
61807;DHT22;47726;52.766;6.606;2022-12-08T07:02:37;4.00;99.90
61807;DHT22;47726;52.766;6.606;2022-12-08T07:05:03;4.10;99.90
61807;DHT22;47726;52.766;6.606;2022-12-08T07:07:28;4.00;99.90
61807;DHT22;47726;52.766;6.606;2022-12-08T07:09:54;4.10;99.90
61807;DHT22;47726;52.766;6.606;2022-12-08T07:12:22;4.00;99.90
61807;DHT22;47726;52.766;6.606;2022-12-08T07:14:47;4.00;99.90
61807;DHT22;47726;52.766;6.606;2022-12-08T07:17:13;4.00;99.90
61807;DHT22;47726;52.766;6.606;2022-12-08T07:19:39;4.00;99.90
61807;DHT22;47726;52.766;6.606;2022-12-08T07:22:04;4.00;99.90
61807;DHT22;47726;52.766;6.606;2022-12-08T07:24:30;4.00;99.90
61807;DHT22;47726;52.766;6.606;2022-12-08T07:26:56;4.00;99.90
61807;DHT22;47726;52.766;6.606;2022-12-08T07:29:21;4.00;99.90
61807;DHT22;47726;52.766;6.606;2022-12-08T07:31:47;4.00;99.90
61807;DHT22;47726;52.766;6.606;2022-12-08T07:34:13;4.00;99.90
61807;DHT22;47726;52.766;6.606;2022-12-08T07:36:41;4.00;99.90
61807;DHT22;47726;52.766;6.606;2022-12-08T07:39:07;4.00;99.90
61807;DHT22;47726;52.766;6.606;2022-12-08T07:41:32;4.00;99.90
61807;DHT22;47726;52.766;6.606;2022-12-08T07:43:58;4.00;99.90
61807;DHT22;47726;52.766;6.606;2022-12-08T07:46:24;4.00;99.90
61807;DHT22;47726;52.766;6.606;2022-12-08T07:48:54;4.00;99.90
61807;DHT22;47726;52.766;6.606;2022-12-08T07:51:20;4.00;99.90
61807;DHT22;47726;52.766;6.606;2022-12-08T07:53:46;4.00;99.90
61807;DHT22;47726;52.766;6.606;2022-12-08T07:56:13;4.00;99.90
61807;DHT22;47726;52.766;6.606;2022-12-08T07:58:39;4.00;99.90
61807;DHT22;47726;52.766;6.606;2022-12-08T08:01:05;4.00;99.90
61807;DHT22;47726;52.766;6.606;2022-12-08T08:03:31;4.00;99.90
61807;DHT22;47726;52.766;6.606;2022-12-08T08:06:03;4.00;99.90
61807;DHT22;47726;52.766;6.606;2022-12-08T08:08:30;4.00;99.90
61807;DHT22;47726;52.766;6.606;2022-12-08T08:10:56;4.00;99.90
61807;DHT22;47726;52.766;6.606;2022-12-08T08:13:21;4.00;99.90
61807;DHT22;47726;52.766;6.606;2022-12-08T08:15:47;4.00;99.90
61807;DHT22;47726;52.766;6.606;2022-12-08T08:18:13;4.00;99.90
61807;DHT22;47726;52.766;6.606;2022-12-08T08:20:41;4.00;99.90
61807;DHT22;47726;52.766;6.606;2022-12-08T08:23:07;4.00;99.90
61807;DHT22;47726;52.766;6.606;2022-12-08T08:25:32;4.00;99.90
61807;DHT22;47726;52.766;6.606;2022-12-08T08:27:58;4.00;99.90
61807;DHT22;47726;52.766;6.606;2022-12-08T08:30:24;4.00;99.90
61807;DHT22;47726;52.766;6.606;2022-12-08T08:32:49;4.00;99.90
61807;DHT22;47726;52.766;6.606;2022-12-08T08:35:16;4.00;99.90
61807;DHT22;47726;52.766;6.606;2022-12-08T08:37:41;4.00;99.90
61807;DHT22;47726;52.766;6.606;2022-12-08T08:40:07;4.00;99.90
61807;DHT22;47726;52.766;6.606;2022-12-08T08:42:33;4.00;99.90
61807;DHT22;47726;52.766;6.606;2022-12-08T08:44:59;4.00;99.90
61807;DHT22;47726;52.766;6.606;2022-12-08T08:47:24;4.00;99.90
61807;DHT22;47726;52.766;6.606;2022-12-08T08:49:50;4.00;99.90
61807;DHT22;47726;52.766;6.606;2022-12-08T08:52:16;4.00;99.90
61807;DHT22;47726;52.766;6.606;2022-12-08T08:54:41;4.00;99.90
61807;DHT22;47726;52.766;6.606;2022-12-08T08:57:07;4.10;99.90
61807;DHT22;47726;52.766;6.606;2022-12-08T08:59:33;4.00;99.90
61807;DHT22;47726;52.766;6.606;2022-12-08T09:01:59;4.00;99.90
61807;DHT22;47726;52.766;6.606;2022-12-08T09:04:25;4.10;99.90
61807;DHT22;47726;52.766;6.606;2022-12-08T09:06:50;4.10;99.90
61807;DHT22;47726;52.766;6.606;2022-12-08T09:09:16;4.10;99.90
61807;DHT22;47726;52.766;6.606;2022-12-08T09:11:42;4.10;99.90
61807;DHT22;47726;52.766;6.606;2022-12-08T09:14:12;4.10;99.90
61807;DHT22;47726;52.766;6.606;2022-12-08T09:16:39;4.10;99.90
61807;DHT22;47726;52.766;6.606;2022-12-08T09:19:05;4.10;99.90
61807;DHT22;47726;52.766;6.606;2022-12-08T09:21:31;4.10;99.90
61807;DHT22;47726;52.766;6.606;2022-12-08T09:23:58;4.10;99.90
61807;DHT22;47726;52.766;6.606;2022-12-08T09:26:25;4.10;99.90
61807;DHT22;47726;52.766;6.606;2022-12-08T09:28:52;4.20;99.90
61807;DHT22;47726;52.766;6.606;2022-12-08T09:31:20;4.20;99.90
61807;DHT22;47726;52.766;6.606;2022-12-08T09:33:47;4.20;99.90
61807;DHT22;47726;52.766;6.606;2022-12-08T09:36:13;4.20;99.90
61807;DHT22;47726;52.766;6.606;2022-12-08T09:38:39;4.20;99.90
61807;DHT22;47726;52.766;6.606;2022-12-08T09:41:36;4.20;99.90
61807;DHT22;47726;52.766;6.606;2022-12-08T09:46:32;4.20;99.90
61807;DHT22;47726;52.766;6.606;2022-12-08T09:48:59;4.20;99.90
61807;DHT22;47726;52.766;6.606;2022-12-08T09:51:32;4.20;99.90
61807;DHT22;47726;52.766;6.606;2022-12-08T09:54:06;4.20;99.90
61807;DHT22;47726;52.766;6.606;2022-12-08T09:56:35;4.30;99.90
61807;DHT22;47726;52.766;6.606;2022-12-08T09:59:21;4.30;99.90
61807;DHT22;47726;52.766;6.606;2022-12-08T10:01:47;4.30;99.90
61807;DHT22;47726;52.766;6.606;2022-12-08T10:09:40;4.30;99.90
61807;DHT22;47726;52.766;6.606;2022-12-08T10:12:17;4.40;99.90
61807;DHT22;47726;52.766;6.606;2022-12-08T10:15:08;4.40;99.90
61807;DHT22;47726;52.766;6.606;2022-12-08T10:17:45;4.40;99.90
61807;DHT22;47726;52.766;6.606;2022-12-08T10:20:21;4.40;99.90
61807;DHT22;47726;52.766;6.606;2022-12-08T10:23:17;4.40;99.90
61807;DHT22;47726;52.766;6.606;2022-12-08T10:26:12;4.50;99.90
61807;DHT22;47726;52.766;6.606;2022-12-08T10:28:36;4.50;99.90
61807;DHT22;47726;52.766;6.606;2022-12-08T10:31:01;4.50;99.90
61807;DHT22;47726;52.766;6.606;2022-12-08T10:33:30;4.50;99.90
61807;DHT22;47726;52.766;6.606;2022-12-08T10:35:58;4.50;99.90
61807;DHT22;47726;52.766;6.606;2022-12-08T10:38:32;4.50;99.90
61807;DHT22;47726;52.766;6.606;2022-12-08T10:43:30;4.50;99.90
61807;DHT22;47726;52.766;6.606;2022-12-08T10:46:10;4.50;99.90
61807;DHT22;47726;52.766;6.606;2022-12-08T10:48:54;4.50;99.90
61807;DHT22;47726;52.766;6.606;2022-12-08T10:51:36;4.50;99.90
61807;DHT22;47726;52.766;6.606;2022-12-08T10:54:02;4.50;99.90
61807;DHT22;47726;52.766;6.606;2022-12-08T10:56:31;4.50;99.90
61807;DHT22;47726;52.766;6.606;2022-12-08T10:59:12;4.50;99.90
61807;DHT22;47726;52.766;6.606;2022-12-08T11:01:39;4.50;99.90
61807;DHT22;47726;52.766;6.606;2022-12-08T11:04:24;4.40;99.90
61807;DHT22;47726;52.766;6.606;2022-12-08T11:06:54;4.50;99.90
61807;DHT22;47726;52.766;6.606;2022-12-08T11:10:02;4.50;99.90
61807;DHT22;47726;52.766;6.606;2022-12-08T11:12:14;4.50;99.90
61807;DHT22;47726;52.766;6.606;2022-12-08T11:22:40;4.50;99.90
61807;DHT22;47726;52.766;6.606;2022-12-08T11:27:33;4.40;99.90
61807;DHT22;47726;52.766;6.606;2022-12-08T11:30:01;4.40;99.90
61807;DHT22;47726;52.766;6.606;2022-12-08T11:32:27;4.40;99.90
61807;DHT22;47726;52.766;6.606;2022-12-08T11:35:03;4.40;99.90
61807;DHT22;47726;52.766;6.606;2022-12-08T11:37:37;4.50;99.90
61807;DHT22;47726;52.766;6.606;2022-12-08T11:40:15;4.40;99.90
61807;DHT22;47726;52.766;6.606;2022-12-08T11:45:34;4.40;99.90
61807;DHT22;47726;52.766;6.606;2022-12-08T11:48:18;4.40;99.90
61807;DHT22;47726;52.766;6.606;2022-12-08T11:50:50;4.40;99.90
61807;DHT22;47726;52.766;6.606;2022-12-08T11:56:33;4.40;99.90
61807;DHT22;47726;52.766;6.606;2022-12-08T11:59:09;4.40;99.90
61807;DHT22;47726;52.766;6.606;2022-12-08T12:01:34;4.30;99.90
61807;DHT22;47726;52.766;6.606;2022-12-08T12:10:04;4.30;99.90
61807;DHT22;47726;52.766;6.606;2022-12-08T12:12:45;4.30;99.90
61807;DHT22;47726;52.766;6.606;2022-12-08T12:15:28;4.30;99.90
61807;DHT22;47726;52.766;6.606;2022-12-08T12:18:00;4.30;99.90
61807;DHT22;47726;52.766;6.606;2022-12-08T12:20:34;4.30;99.90
61807;DHT22;47726;52.766;6.606;2022-12-08T12:23:18;4.30;99.90
61807;DHT22;47726;52.766;6.606;2022-12-08T12:25:58;4.30;99.90
61807;DHT22;47726;52.766;6.606;2022-12-08T12:28:40;4.40;99.90
61807;DHT22;47726;52.766;6.606;2022-12-08T12:31:12;4.40;99.90
61807;DHT22;47726;52.766;6.606;2022-12-08T12:33:41;4.40;99.90
61807;DHT22;47726;52.766;6.606;2022-12-08T12:36:08;4.40;99.90
61807;DHT22;47726;52.766;6.606;2022-12-08T12:38:41;4.40;99.90
61807;DHT22;47726;52.766;6.606;2022-12-08T12:44:20;4.40;99.90
61807;DHT22;47726;52.766;6.606;2022-12-08T12:54:29;4.50;99.90
61807;DHT22;47726;52.766;6.606;2022-12-08T13:02:38;4.60;99.90
61807;DHT22;47726;52.766;6.606;2022-12-08T13:10:24;4.70;99.90
61807;DHT22;47726;52.766;6.606;2022-12-08T13:15:40;4.70;99.90
61807;DHT22;47726;52.766;6.606;2022-12-08T13:18:26;4.70;99.90
61807;DHT22;47726;52.766;6.606;2022-12-08T13:21:13;4.70;99.90
61807;DHT22;47726;52.766;6.606;2022-12-08T13:26:27;4.70;99.90
61807;DHT22;47726;52.766;6.606;2022-12-08T13:31:40;4.70;99.90
61807;DHT22;47726;52.766;6.606;2022-12-08T13:36:51;4.70;99.90
61807;DHT22;47726;52.766;6.606;2022-12-08T13:39:35;4.70;99.90
61807;DHT22;47726;52.766;6.606;2022-12-08T13:44:44;4.70;99.90
61807;DHT22;47726;52.766;6.606;2022-12-08T13:47:14;4.70;99.90
61807;DHT22;47726;52.766;6.606;2022-12-08T13:49:47;4.70;99.90
61807;DHT22;47726;52.766;6.606;2022-12-08T13:52:27;4.70;99.90
61807;DHT22;47726;52.766;6.606;2022-12-08T13:54:56;4.70;99.90
61807;DHT22;47726;52.766;6.606;2022-12-08T13:57:31;4.70;99.90
61807;DHT22;47726;52.766;6.606;2022-12-08T14:00:02;4.70;99.90
61807;DHT22;47726;52.766;6.606;2022-12-08T14:02:30;4.70;99.90
61807;DHT22;47726;52.766;6.606;2022-12-08T14:04:57;4.70;99.90
61807;DHT22;47726;52.766;6.606;2022-12-08T14:07:26;4.70;99.90
61807;DHT22;47726;52.766;6.606;2022-12-08T14:09:52;4.70;99.90
61807;DHT22;47726;52.766;6.606;2022-12-08T14:12:24;4.70;99.90
61807;DHT22;47726;52.766;6.606;2022-12-08T14:15:02;4.80;99.90
61807;DHT22;47726;52.766;6.606;2022-12-08T14:17:28;4.80;99.90
61807;DHT22;47726;52.766;6.606;2022-12-08T14:22:36;4.90;99.90
61807;DHT22;47726;52.766;6.606;2022-12-08T14:25:04;4.90;99.90
61807;DHT22;47726;52.766;6.606;2022-12-08T14:27:35;4.90;99.90
61807;DHT22;47726;52.766;6.606;2022-12-08T14:32:46;4.90;99.90
61807;DHT22;47726;52.766;6.606;2022-12-08T14:35:33;4.90;99.90
61807;DHT22;47726;52.766;6.606;2022-12-08T14:38:01;4.90;99.90
61807;DHT22;47726;52.766;6.606;2022-12-08T14:40:36;4.90;99.90
61807;DHT22;47726;52.766;6.606;2022-12-08T14:45:48;4.90;99.90
61807;DHT22;47726;52.766;6.606;2022-12-08T14:51:04;4.90;99.90
61807;DHT22;47726;52.766;6.606;2022-12-08T14:56:18;4.80;99.90
61807;DHT22;47726;52.766;6.606;2022-12-08T14:58:45;4.80;99.90
61807;DHT22;47726;52.766;6.606;2022-12-08T15:01:14;4.80;99.90
61807;DHT22;47726;52.766;6.606;2022-12-08T15:03:41;4.70;99.90
61807;DHT22;47726;52.766;6.606;2022-12-08T15:06:08;4.70;99.90
61807;DHT22;47726;52.766;6.606;2022-12-08T15:08:55;4.70;99.90
61807;DHT22;47726;52.766;6.606;2022-12-08T15:13:50;4.60;99.90
61807;DHT22;47726;52.766;6.606;2022-12-08T15:16:36;4.60;99.90
61807;DHT22;47726;52.766;6.606;2022-12-08T15:19:04;4.60;99.90
61807;DHT22;47726;52.766;6.606;2022-12-08T15:21:35;4.60;99.90
61807;DHT22;47726;52.766;6.606;2022-12-08T15:24:02;4.50;99.90
61807;DHT22;47726;52.766;6.606;2022-12-08T15:26:46;4.50;99.90
61807;DHT22;47726;52.766;6.606;2022-12-08T15:29:26;4.50;99.90
61807;DHT22;47726;52.766;6.606;2022-12-08T15:31:59;4.50;99.90
61807;DHT22;47726;52.766;6.606;2022-12-08T15:34:24;4.50;99.90
61807;DHT22;47726;52.766;6.606;2022-12-08T15:36:52;4.50;99.90
61807;DHT22;47726;52.766;6.606;2022-12-08T15:39:27;4.50;99.90
61807;DHT22;47726;52.766;6.606;2022-12-08T15:41:54;4.50;99.90
61807;DHT22;47726;52.766;6.606;2022-12-08T15:44:20;4.40;99.90
61807;DHT22;47726;52.766;6.606;2022-12-08T15:46:45;4.40;99.90
61807;DHT22;47726;52.766;6.606;2022-12-08T15:49:29;4.40;99.90
61807;DHT22;47726;52.766;6.606;2022-12-08T15:51:55;4.40;99.90
61807;DHT22;47726;52.766;6.606;2022-12-08T15:54:21;4.40;99.90
61807;DHT22;47726;52.766;6.606;2022-12-08T15:56:55;4.40;99.90
61807;DHT22;47726;52.766;6.606;2022-12-08T15:59:23;4.40;99.90
61807;DHT22;47726;52.766;6.606;2022-12-08T16:01:50;4.40;99.90
61807;DHT22;47726;52.766;6.606;2022-12-08T16:04:19;4.40;99.90
61807;DHT22;47726;52.766;6.606;2022-12-08T16:06:50;4.40;99.90
61807;DHT22;47726;52.766;6.606;2022-12-08T16:09:20;4.40;99.90
61807;DHT22;47726;52.766;6.606;2022-12-08T16:11:47;4.40;99.90
61807;DHT22;47726;52.766;6.606;2022-12-08T16:14:31;4.40;99.90
61807;DHT22;47726;52.766;6.606;2022-12-08T16:16:57;4.40;99.90
61807;DHT22;47726;52.766;6.606;2022-12-08T16:19:23;4.40;99.90
61807;DHT22;47726;52.766;6.606;2022-12-08T16:21:49;4.40;99.90
61807;DHT22;47726;52.766;6.606;2022-12-08T16:24:14;4.40;99.90
61807;DHT22;47726;52.766;6.606;2022-12-08T16:26:40;4.30;99.90
61807;DHT22;47726;52.766;6.606;2022-12-08T16:29:06;4.30;99.90
61807;DHT22;47726;52.766;6.606;2022-12-08T16:31:32;4.30;99.90
61807;DHT22;47726;52.766;6.606;2022-12-08T16:33:58;4.30;99.90
61807;DHT22;47726;52.766;6.606;2022-12-08T16:36:23;4.30;99.90
61807;DHT22;47726;52.766;6.606;2022-12-08T16:38:49;4.30;99.90
61807;DHT22;47726;52.766;6.606;2022-12-08T16:41:15;4.30;99.90
61807;DHT22;47726;52.766;6.606;2022-12-08T16:44:01;4.20;99.90
61807;DHT22;47726;52.766;6.606;2022-12-08T16:46:27;4.20;99.90
61807;DHT22;47726;52.766;6.606;2022-12-08T16:48:53;4.20;99.90
61807;DHT22;47726;52.766;6.606;2022-12-08T16:51:20;4.20;99.90
61807;DHT22;47726;52.766;6.606;2022-12-08T16:53:45;4.20;99.90
61807;DHT22;47726;52.766;6.606;2022-12-08T16:56:19;4.20;99.90
61807;DHT22;47726;52.766;6.606;2022-12-08T16:58:46;4.10;99.90
61807;DHT22;47726;52.766;6.606;2022-12-08T17:01:13;4.10;99.90
61807;DHT22;47726;52.766;6.606;2022-12-08T17:03:40;4.10;99.90
61807;DHT22;47726;52.766;6.606;2022-12-08T17:06:15;4.10;99.90
61807;DHT22;47726;52.766;6.606;2022-12-08T17:08:42;4.00;99.90
61807;DHT22;47726;52.766;6.606;2022-12-08T17:11:08;4.00;99.90
61807;DHT22;47726;52.766;6.606;2022-12-08T17:13:35;4.00;99.90
61807;DHT22;47726;52.766;6.606;2022-12-08T17:16:06;4.00;99.90
61807;DHT22;47726;52.766;6.606;2022-12-08T17:18:32;4.00;99.90
61807;DHT22;47726;52.766;6.606;2022-12-08T17:20:57;3.90;99.90
61807;DHT22;47726;52.766;6.606;2022-12-08T17:23:23;3.90;99.90
61807;DHT22;47726;52.766;6.606;2022-12-08T17:26:02;3.90;99.90
61807;DHT22;47726;52.766;6.606;2022-12-08T17:28:28;3.90;99.90
61807;DHT22;47726;52.766;6.606;2022-12-08T17:30:54;3.90;99.90
61807;DHT22;47726;52.766;6.606;2022-12-08T17:33:20;3.90;99.90
61807;DHT22;47726;52.766;6.606;2022-12-08T17:35:51;3.90;99.90
61807;DHT22;47726;52.766;6.606;2022-12-08T17:38:18;3.90;99.90
61807;DHT22;47726;52.766;6.606;2022-12-08T17:40:44;3.90;99.90
61807;DHT22;47726;52.766;6.606;2022-12-08T17:43:11;3.90;99.90
61807;DHT22;47726;52.766;6.606;2022-12-08T17:45:45;3.90;99.90
61807;DHT22;47726;52.766;6.606;2022-12-08T17:48:12;3.90;99.90
61807;DHT22;47726;52.766;6.606;2022-12-08T17:50:42;3.90;99.90